Time;durP1;ratioP1;P1;durP2;ratioP2;P2;SDS_P1;SDS_P2;PMS_P1;PMS_P2;Temp;Humidity;BMP_temperature;BMP_pressure;BME280_temperature;BME280_humidity;BME280_pressure;Samples;Min_cycle;Max_cycle;Signal;HPM_P1;HPM_P2
2022/12/19 00:00:00;;;;;;;3.2;3.1;;;;;;;0.3;100.0;101660;;;;
2022/12/19 00:01:04;;;;;;;3.2;3.1;;;;;;;0.3;100.0;101660;;;;
2022/12/19 00:02:00;;;;;;;3.2;3.1;;;;;;;0.3;100.0;101670;;;;
2022/12/19 00:03:00;;;;;;;3.2;3.1;;;;;;;0.3;100.0;101670;;;;
2022/12/19 00:04:02;;;;;;;3.2;3.1;;;;;;;0.3;100.0;101670;;;;
2022/12/19 00:05:00;;;;;;;3.2;3.1;;;;;;;0.3;100.0;101670;;;;
2022/12/19 00:06:01;;;;;;;3.2;3.1;;;;;;;0.4;100.0;101670;;;;
2022/12/19 00:07:00;;;;;;;3.2;3.1;;;;;;;0.4;100.0;101670;;;;
2022/12/19 00:08:10;;;;;;;3.3;3.2;;;;;;;0.4;100.0;101660;;;;
2022/12/19 00:09:00;;;;;;;3.3;3.2;;;;;;;0.4;100.0;101660;;;;
2022/12/19 00:10:00;;;;;;;3.3;3.2;;;;;;;0.3;100.0;101660;;;;
2022/12/19 00:11:01;;;;;;;3.3;3.2;;;;;;;0.3;100.0;101660;;;;
2022/12/19 00:12:00;;;;;;;3.3;3.2;;;;;;;0.3;100.0;101650;;;;
2022/12/19 00:13:00;;;;;;;3.3;3.2;;;;;;;0.3;100.0;101650;;;;
2022/12/19 00:14:00;;;;;;;3.3;3.2;;;;;;;0.4;100.0;101640;;;;
2022/12/19 00:15:02;;;;;;;3.3;3.2;;;;;;;0.4;100.0;101640;;;;
2022/12/19 00:16:02;;;;;;;3.3;3.2;;;;;;;0.4;100.0;101630;;;;
2022/12/19 00:17:00;;;;;;;3.3;3.2;;;;;;;0.4;100.0;101630;;;;
2022/12/19 00:18:00;;;;;;;3.3;3.2;;;;;;;0.3;100.0;101630;;;;
2022/12/19 00:19:01;;;;;;;3.3;3.2;;;;;;;0.3;100.0;101630;;;;
2022/12/19 00:20:00;;;;;;;3.3;3.2;;;;;;;0.5;100.0;101610;;;;
2022/12/19 00:21:03;;;;;;;3.3;3.2;;;;;;;0.5;100.0;101610;;;;
2022/12/19 00:22:01;;;;;;;3.3;3.2;;;;;;;0.5;100.0;101620;;;;
2022/12/19 00:23:00;;;;;;;3.3;3.2;;;;;;;0.5;100.0;101620;;;;
2022/12/19 00:24:01;;;;;;;3.3;3.2;;;;;;;0.4;100.0;101620;;;;
2022/12/19 00:25:01;;;;;;;3.3;3.2;;;;;;;0.4;100.0;101620;;;;
2022/12/19 00:26:08;;;;;;;3.3;3.2;;;;;;;0.4;100.0;101610;;;;
2022/12/19 00:27:02;;;;;;;3.3;3.2;;;;;;;0.4;100.0;101610;;;;
2022/12/19 00:28:00;;;;;;;3.3;3.2;;;;;;;0.3;100.0;101630;;;;
2022/12/19 00:29:01;;;;;;;3.3;3.2;;;;;;;0.3;100.0;101630;;;;
2022/12/19 00:30:00;;;;;;;3.3;3.2;;;;;;;0.5;100.0;101610;;;;
2022/12/19 00:31:01;;;;;;;3.3;3.2;;;;;;;0.5;100.0;101610;;;;
2022/12/19 00:32:00;;;;;;;3.3;3.2;;;;;;;0.5;100.0;101610;;;;
2022/12/19 00:33:00;;;;;;;3.3;3.2;;;;;;;0.5;100.0;101610;;;;
2022/12/19 00:34:00;;;;;;;3.3;3.2;;;;;;;0.5;100.0;101610;;;;
2022/12/19 00:35:01;;;;;;;3.3;3.2;;;;;;;0.5;100.0;101610;;;;
2022/12/19 00:36:01;;;;;;;3.3;3.2;;;;;;;0.5;100.0;101600;;;;
2022/12/19 00:37:00;;;;;;;3.3;3.2;;;;;;;0.5;100.0;101600;;;;
2022/12/19 00:38:01;;;;;;;3.3;3.2;;;;;;;0.6;100.0;101590;;;;
2022/12/19 00:39:01;;;;;;;3.3;3.2;;;;;;;0.6;100.0;101590;;;;
2022/12/19 00:40:00;;;;;;;3.3;3.2;;;;;;;0.6;100.0;101600;;;;
2022/12/19 00:41:10;;;;;;;3.3;3.2;;;;;;;0.6;100.0;101600;;;;
2022/12/19 00:42:00;;;;;;;3.3;3.2;;;;;;;0.7;100.0;101590;;;;
2022/12/19 00:43:00;;;;;;;3.3;3.2;;;;;;;0.7;100.0;101590;;;;
2022/12/19 00:44:03;;;;;;;3.3;3.2;;;;;;;0.8;100.0;101580;;;;
2022/12/19 00:45:00;;;;;;;3.3;3.2;;;;;;;0.8;100.0;101580;;;;
2022/12/19 00:46:01;;;;;;;3.3;3.2;;;;;;;0.9;100.0;101580;;;;
2022/12/19 00:47:00;;;;;;;3.3;3.2;;;;;;;0.9;100.0;101580;;;;
2022/12/19 00:48:00;;;;;;;3.0;2.9;;;;;;;1.0;100.0;101570;;;;
2022/12/19 00:49:00;;;;;;;3.0;2.9;;;;;;;1.0;100.0;101570;;;;
2022/12/19 00:50:00;;;;;;;3.0;2.9;;;;;;;0.9;100.0;101560;;;;
2022/12/19 00:51:01;;;;;;;3.0;2.9;;;;;;;0.9;100.0;101560;;;;
2022/12/19 00:52:00;;;;;;;3.0;2.9;;;;;;;1.0;100.0;101570;;;;
2022/12/19 00:53:00;;;;;;;3.0;2.9;;;;;;;1.0;100.0;101570;;;;
2022/12/19 00:54:02;;;;;;;3.0;2.9;;;;;;;1.0;100.0;101570;;;;
2022/12/19 00:55:02;;;;;;;3.0;2.9;;;;;;;1.0;100.0;101570;;;;
2022/12/19 00:56:02;;;;;;;3.0;2.9;;;;;;;1.0;100.0;101560;;;;
2022/12/19 00:57:00;;;;;;;3.0;2.9;;;;;;;1.0;100.0;101560;;;;
2022/12/19 00:58:01;;;;;;;3.0;2.9;;;;;;;1.1;100.0;101560;;;;
2022/12/19 00:59:01;;;;;;;3.0;2.9;;;;;;;1.1;100.0;101560;;;;
2022/12/19 01:00:00;;;;;;;3.0;2.9;;;;;;;1.1;100.0;101560;;;;
2022/12/19 01:01:04;;;;;;;3.0;2.9;;;;;;;1.1;100.0;101560;;;;
2022/12/19 01:02:00;;;;;;;3.0;2.9;;;;;;;1.1;100.0;101550;;;;
2022/12/19 01:03:02;;;;;;;3.0;2.9;;;;;;;1.1;100.0;101550;;;;
2022/12/19 01:04:11;;;;;;;3.0;2.9;;;;;;;1.2;100.0;101560;;;;
2022/12/19 01:05:00;;;;;;;3.0;2.9;;;;;;;1.2;100.0;101560;;;;
2022/12/19 01:06:00;;;;;;;3.0;2.9;;;;;;;1.1;100.0;101550;;;;
2022/12/19 01:07:04;;;;;;;3.0;2.9;;;;;;;1.1;100.0;101550;;;;
2022/12/19 01:08:00;;;;;;;3.0;2.9;;;;;;;1.2;100.0;101560;;;;
2022/12/19 01:09:00;;;;;;;3.0;2.9;;;;;;;1.2;100.0;101560;;;;
2022/12/19 01:10:00;;;;;;;3.0;2.9;;;;;;;1.2;100.0;101550;;;;
2022/12/19 01:11:00;;;;;;;3.0;2.9;;;;;;;1.2;100.0;101550;;;;
2022/12/19 01:13:00;;;;;;;3.0;2.9;;;;;;;1.2;100.0;101540;;;;
2022/12/19 01:14:00;;;;;;;3.0;2.9;;;;;;;1.4;100.0;101550;;;;
2022/12/19 01:15:05;;;;;;;3.0;2.9;;;;;;;1.4;100.0;101550;;;;
2022/12/19 01:16:02;;;;;;;3.0;2.9;;;;;;;1.4;100.0;101540;;;;
2022/12/19 01:17:00;;;;;;;3.0;2.9;;;;;;;1.4;100.0;101540;;;;
2022/12/19 01:18:00;;;;;;;3.0;2.9;;;;;;;1.4;100.0;101550;;;;
2022/12/19 01:19:02;;;;;;;3.0;2.9;;;;;;;1.4;100.0;101550;;;;
2022/12/19 01:20:00;;;;;;;3.0;2.9;;;;;;;1.5;100.0;101550;;;;
2022/12/19 01:21:01;;;;;;;3.0;2.9;;;;;;;1.5;100.0;101550;;;;
2022/12/19 01:22:01;;;;;;;3.0;2.9;;;;;;;1.5;100.0;101550;;;;
2022/12/19 01:23:01;;;;;;;3.0;2.9;;;;;;;1.5;100.0;101550;;;;
2022/12/19 01:24:01;;;;;;;3.0;2.9;;;;;;;1.5;100.0;101550;;;;
2022/12/19 01:25:00;;;;;;;3.0;2.9;;;;;;;1.5;100.0;101550;;;;
2022/12/19 01:26:00;;;;;;;3.0;2.9;;;;;;;1.5;100.0;101540;;;;
2022/12/19 01:27:00;;;;;;;3.0;2.9;;;;;;;1.5;100.0;101540;;;;
2022/12/19 01:28:00;;;;;;;3.1;3.0;;;;;;;1.5;100.0;101540;;;;
2022/12/19 01:29:00;;;;;;;3.1;3.0;;;;;;;1.5;100.0;101540;;;;
2022/12/19 01:30:00;;;;;;;3.1;3.0;;;;;;;1.5;100.0;101530;;;;
2022/12/19 01:31:04;;;;;;;3.1;3.0;;;;;;;1.5;100.0;101530;;;;
2022/12/19 01:32:00;;;;;;;3.1;3.0;;;;;;;1.7;100.0;101540;;;;
2022/12/19 01:33:00;;;;;;;3.1;3.0;;;;;;;1.7;100.0;101540;;;;
2022/12/19 01:34:01;;;;;;;3.1;3.0;;;;;;;1.6;100.0;101530;;;;
2022/12/19 01:35:01;;;;;;;3.1;3.0;;;;;;;1.6;100.0;101530;;;;
2022/12/19 01:36:06;;;;;;;3.1;3.0;;;;;;;1.5;100.0;101520;;;;
2022/12/19 01:37:00;;;;;;;3.1;3.0;;;;;;;1.5;100.0;101520;;;;
2022/12/19 01:38:08;;;;;;;3.1;3.0;;;;;;;1.5;100.0;101520;;;;
2022/12/19 01:39:00;;;;;;;3.1;3.0;;;;;;;1.5;100.0;101520;;;;
2022/12/19 01:40:00;;;;;;;3.1;3.0;;;;;;;1.5;100.0;101520;;;;
2022/12/19 01:41:03;;;;;;;3.1;3.0;;;;;;;1.5;100.0;101520;;;;
2022/12/19 01:42:00;;;;;;;3.1;3.0;;;;;;;1.5;100.0;101520;;;;
2022/12/19 01:43:01;;;;;;;3.1;3.0;;;;;;;1.5;100.0;101520;;;;
2022/12/19 01:44:02;;;;;;;3.1;3.0;;;;;;;1.5;100.0;101520;;;;
2022/12/19 01:45:03;;;;;;;3.1;3.0;;;;;;;1.5;100.0;101520;;;;
2022/12/19 01:46:02;;;;;;;3.1;3.0;;;;;;;1.5;100.0;101520;;;;
2022/12/19 01:47:01;;;;;;;3.1;3.0;;;;;;;1.5;100.0;101520;;;;
2022/12/19 01:48:04;;;;;;;3.3;3.2;;;;;;;1.5;100.0;101520;;;;
2022/12/19 01:49:01;;;;;;;3.3;3.2;;;;;;;1.5;100.0;101520;;;;
2022/12/19 01:50:01;;;;;;;3.3;3.2;;;;;;;1.5;100.0;101520;;;;
2022/12/19 01:51:02;;;;;;;3.3;3.2;;;;;;;1.5;100.0;101520;;;;
2022/12/19 01:52:03;;;;;;;3.3;3.2;;;;;;;1.6;100.0;101510;;;;
2022/12/19 01:53:01;;;;;;;3.3;3.2;;;;;;;1.6;100.0;101510;;;;
2022/12/19 01:54:03;;;;;;;3.3;3.2;;;;;;;1.5;100.0;101520;;;;
2022/12/19 01:55:01;;;;;;;3.3;3.2;;;;;;;1.5;100.0;101520;;;;
2022/12/19 01:56:08;;;;;;;3.3;3.2;;;;;;;1.5;100.0;101520;;;;
2022/12/19 01:57:01;;;;;;;3.3;3.2;;;;;;;1.5;100.0;101520;;;;
2022/12/19 01:58:00;;;;;;;3.3;3.2;;;;;;;1.5;100.0;101510;;;;
2022/12/19 01:59:06;;;;;;;3.3;3.2;;;;;;;1.5;100.0;101510;;;;
2022/12/19 02:00:02;;;;;;;3.3;3.2;;;;;;;1.5;100.0;101510;;;;
2022/12/19 02:01:00;;;;;;;3.3;3.2;;;;;;;1.5;100.0;101510;;;;
2022/12/19 02:02:09;;;;;;;3.3;3.2;;;;;;;1.6;100.0;101500;;;;
2022/12/19 02:03:09;;;;;;;3.3;3.2;;;;;;;1.6;100.0;101500;;;;
2022/12/19 02:04:01;;;;;;;3.3;3.2;;;;;;;1.7;100.0;101510;;;;
2022/12/19 02:05:00;;;;;;;3.3;3.2;;;;;;;1.7;100.0;101510;;;;
2022/12/19 02:06:01;;;;;;;3.3;3.2;;;;;;;1.6;100.0;101500;;;;
2022/12/19 02:07:12;;;;;;;3.3;3.2;;;;;;;1.6;100.0;101500;;;;
2022/12/19 02:08:00;;;;;;;2.7;2.6;;;;;;;1.6;100.0;101490;;;;
2022/12/19 02:09:00;;;;;;;2.7;2.6;;;;;;;1.6;100.0;101490;;;;
2022/12/19 02:10:01;;;;;;;2.7;2.6;;;;;;;1.7;100.0;101500;;;;
2022/12/19 02:11:00;;;;;;;2.7;2.6;;;;;;;1.7;100.0;101500;;;;
2022/12/19 02:12:00;;;;;;;2.7;2.6;;;;;;;1.6;100.0;101500;;;;
2022/12/19 02:13:01;;;;;;;2.7;2.6;;;;;;;1.6;100.0;101500;;;;
2022/12/19 02:14:00;;;;;;;2.7;2.6;;;;;;;1.7;100.0;101480;;;;
2022/12/19 02:15:03;;;;;;;2.7;2.6;;;;;;;1.7;100.0;101480;;;;
2022/12/19 02:16:07;;;;;;;2.7;2.6;;;;;;;1.7;100.0;101480;;;;
2022/12/19 02:17:06;;;;;;;2.7;2.6;;;;;;;1.7;100.0;101480;;;;
2022/12/19 02:18:01;;;;;;;2.7;2.6;;;;;;;1.7;100.0;101490;;;;
2022/12/19 02:19:00;;;;;;;2.7;2.6;;;;;;;1.7;100.0;101490;;;;
2022/12/19 02:20:10;;;;;;;2.7;2.6;;;;;;;1.7;100.0;101490;;;;
2022/12/19 02:21:10;;;;;;;2.7;2.6;;;;;;;1.7;100.0;101490;;;;
2022/12/19 02:22:04;;;;;;;2.7;2.6;;;;;;;1.7;100.0;101480;;;;
2022/12/19 02:23:01;;;;;;;2.7;2.6;;;;;;;1.7;100.0;101480;;;;
2022/12/19 02:24:03;;;;;;;2.7;2.6;;;;;;;1.8;100.0;101480;;;;
2022/12/19 02:25:10;;;;;;;2.7;2.6;;;;;;;1.8;100.0;101480;;;;
2022/12/19 02:26:10;;;;;;;2.7;2.6;;;;;;;1.7;100.0;101480;;;;
2022/12/19 02:27:11;;;;;;;3.6;3.5;;;;;;;1.7;100.0;101480;;;;
2022/12/19 02:28:10;;;;;;;3.6;3.5;;;;;;;1.8;100.0;101480;;;;
2022/12/19 02:29:01;;;;;;;3.6;3.5;;;;;;;1.8;100.0;101480;;;;
2022/12/19 02:30:09;;;;;;;3.6;3.5;;;;;;;1.8;100.0;101470;;;;
2022/12/19 02:31:17;;;;;;;3.6;3.5;;;;;;;1.8;100.0;101470;;;;
2022/12/19 02:32:06;;;;;;;3.6;3.5;;;;;;;1.8;100.0;101480;;;;
2022/12/19 02:33:10;;;;;;;3.6;3.5;;;;;;;1.8;100.0;101480;;;;
2022/12/19 02:34:08;;;;;;;3.6;3.5;;;;;;;1.9;100.0;101470;;;;
2022/12/19 02:35:12;;;;;;;3.6;3.5;;;;;;;1.9;100.0;101470;;;;
2022/12/19 02:36:06;;;;;;;3.6;3.5;;;;;;;1.8;100.0;101460;;;;
2022/12/19 02:37:01;;;;;;;3.6;3.5;;;;;;;1.8;100.0;101460;;;;
2022/12/19 02:38:14;;;;;;;3.6;3.5;;;;;;;1.9;100.0;101460;;;;
2022/12/19 02:39:05;;;;;;;3.6;3.5;;;;;;;1.9;100.0;101460;;;;
2022/12/19 02:40:04;;;;;;;3.6;3.5;;;;;;;1.9;100.0;101460;;;;
2022/12/19 02:41:05;;;;;;;3.6;3.5;;;;;;;1.9;100.0;101460;;;;
2022/12/19 02:42:03;;;;;;;3.6;3.5;;;;;;;2.0;100.0;101460;;;;
2022/12/19 02:43:01;;;;;;;3.6;3.5;;;;;;;2.0;100.0;101460;;;;
2022/12/19 02:44:01;;;;;;;3.6;3.5;;;;;;;2.0;100.0;101460;;;;
2022/12/19 02:45:02;;;;;;;3.6;3.5;;;;;;;2.0;100.0;101460;;;;
2022/12/19 02:46:03;;;;;;;3.6;3.5;;;;;;;2.0;100.0;101460;;;;
2022/12/19 02:47:02;;;;;;;3.6;3.5;;;;;;;2.0;100.0;101460;;;;
2022/12/19 02:48:08;;;;;;;3.1;3.0;;;;;;;2.1;100.0;101450;;;;
2022/12/19 02:49:01;;;;;;;3.1;3.0;;;;;;;2.1;100.0;101450;;;;
2022/12/19 02:50:01;;;;;;;3.1;3.0;;;;;;;2.1;100.0;101450;;;;
2022/12/19 02:51:00;;;;;;;3.1;3.0;;;;;;;2.1;100.0;101450;;;;
2022/12/19 02:52:10;;;;;;;3.1;3.0;;;;;;;2.1;100.0;101440;;;;
2022/12/19 02:53:00;;;;;;;3.1;3.0;;;;;;;2.1;100.0;101440;;;;
2022/12/19 02:54:00;;;;;;;3.1;3.0;;;;;;;2.1;100.0;101440;;;;
2022/12/19 02:55:03;;;;;;;3.1;3.0;;;;;;;2.1;100.0;101440;;;;
2022/12/19 02:56:10;;;;;;;3.1;3.0;;;;;;;2.1;100.0;101430;;;;
2022/12/19 02:57:09;;;;;;;3.1;3.0;;;;;;;2.1;100.0;101430;;;;
2022/12/19 02:58:08;;;;;;;3.1;3.0;;;;;;;2.2;100.0;101430;;;;
2022/12/19 02:59:07;;;;;;;3.1;3.0;;;;;;;2.2;100.0;101430;;;;
2022/12/19 03:00:08;;;;;;;3.1;3.0;;;;;;;2.3;100.0;101430;;;;
2022/12/19 03:01:08;;;;;;;3.1;3.0;;;;;;;2.3;100.0;101430;;;;
2022/12/19 03:02:08;;;;;;;3.1;3.0;;;;;;;2.2;100.0;101430;;;;
2022/12/19 03:03:09;;;;;;;3.1;3.0;;;;;;;2.2;100.0;101430;;;;
2022/12/19 03:04:03;;;;;;;3.1;3.0;;;;;;;2.2;100.0;101420;;;;
2022/12/19 03:05:10;;;;;;;3.1;3.0;;;;;;;2.2;100.0;101420;;;;
2022/12/19 03:06:10;;;;;;;3.1;3.0;;;;;;;2.2;100.0;101420;;;;
2022/12/19 03:07:10;;;;;;;3.0;2.9;;;;;;;2.2;100.0;101420;;;;
2022/12/19 03:08:02;;;;;;;3.0;2.9;;;;;;;2.2;100.0;101430;;;;
2022/12/19 03:09:07;;;;;;;3.0;2.9;;;;;;;2.2;100.0;101430;;;;
2022/12/19 03:10:00;;;;;;;3.0;2.9;;;;;;;2.2;100.0;101420;;;;
2022/12/19 03:11:09;;;;;;;3.0;2.9;;;;;;;2.2;100.0;101420;;;;
2022/12/19 03:12:10;;;;;;;3.0;2.9;;;;;;;2.3;100.0;101420;;;;
2022/12/19 03:13:07;;;;;;;3.0;2.9;;;;;;;2.3;100.0;101420;;;;
2022/12/19 03:14:04;;;;;;;3.0;2.9;;;;;;;2.3;100.0;101430;;;;
2022/12/19 03:15:01;;;;;;;3.0;2.9;;;;;;;2.3;100.0;101430;;;;
2022/12/19 03:16:01;;;;;;;3.0;2.9;;;;;;;2.4;100.0;101420;;;;
2022/12/19 03:17:03;;;;;;;3.0;2.9;;;;;;;2.4;100.0;101420;;;;
2022/12/19 03:18:00;;;;;;;3.0;2.9;;;;;;;2.3;100.0;101430;;;;
2022/12/19 03:19:00;;;;;;;3.0;2.9;;;;;;;2.3;100.0;101430;;;;
2022/12/19 03:20:03;;;;;;;3.0;2.9;;;;;;;2.3;100.0;101430;;;;
2022/12/19 03:21:10;;;;;;;3.0;2.9;;;;;;;2.3;100.0;101430;;;;
2022/12/19 03:22:00;;;;;;;3.0;2.9;;;;;;;2.4;100.0;101420;;;;
2022/12/19 03:23:00;;;;;;;3.0;2.9;;;;;;;2.4;100.0;101420;;;;
2022/12/19 03:24:01;;;;;;;3.0;2.9;;;;;;;2.4;100.0;101420;;;;
2022/12/19 03:25:01;;;;;;;3.0;2.9;;;;;;;2.4;100.0;101420;;;;
2022/12/19 03:26:03;;;;;;;3.0;2.9;;;;;;;2.5;100.0;101420;;;;
2022/12/19 03:27:02;;;;;;;2.6;2.5;;;;;;;2.5;100.0;101420;;;;
2022/12/19 03:28:03;;;;;;;2.6;2.5;;;;;;;2.5;100.0;101430;;;;
2022/12/19 03:29:10;;;;;;;2.6;2.5;;;;;;;2.5;100.0;101430;;;;
2022/12/19 03:30:03;;;;;;;2.6;2.5;;;;;;;2.5;100.0;101420;;;;
2022/12/19 03:31:02;;;;;;;2.6;2.5;;;;;;;2.5;100.0;101420;;;;
2022/12/19 03:32:04;;;;;;;2.6;2.5;;;;;;;2.5;100.0;101430;;;;
2022/12/19 03:33:01;;;;;;;2.6;2.5;;;;;;;2.5;100.0;101430;;;;
2022/12/19 03:34:03;;;;;;;2.6;2.5;;;;;;;2.5;100.0;101420;;;;
2022/12/19 03:35:06;;;;;;;2.6;2.5;;;;;;;2.5;100.0;101420;;;;
2022/12/19 03:36:03;;;;;;;2.6;2.5;;;;;;;2.5;100.0;101410;;;;
2022/12/19 03:37:02;;;;;;;2.6;2.5;;;;;;;2.5;100.0;101410;;;;
2022/12/19 03:38:01;;;;;;;2.6;2.5;;;;;;;2.6;100.0;101410;;;;
2022/12/19 03:39:03;;;;;;;2.6;2.5;;;;;;;2.6;100.0;101410;;;;
2022/12/19 03:40:02;;;;;;;2.6;2.5;;;;;;;2.5;100.0;101410;;;;
2022/12/19 03:41:01;;;;;;;2.6;2.5;;;;;;;2.5;100.0;101410;;;;
2022/12/19 03:43:10;;;;;;;2.6;2.5;;;;;;;2.6;100.0;101410;;;;
2022/12/19 03:44:00;;;;;;;2.6;2.5;;;;;;;2.6;100.0;101400;;;;
2022/12/19 03:45:02;;;;;;;2.6;2.5;;;;;;;2.6;100.0;101400;;;;
2022/12/19 03:46:05;;;;;;;2.6;2.5;;;;;;;2.6;100.0;101400;;;;
2022/12/19 03:47:06;;;;;;;2.3;2.3;;;;;;;2.6;100.0;101400;;;;
2022/12/19 03:48:06;;;;;;;2.3;2.3;;;;;;;2.7;100.0;101400;;;;
2022/12/19 03:49:00;;;;;;;2.3;2.3;;;;;;;2.7;100.0;101400;;;;
2022/12/19 03:50:01;;;;;;;2.3;2.3;;;;;;;2.7;100.0;101400;;;;
2022/12/19 03:51:00;;;;;;;2.3;2.3;;;;;;;2.7;100.0;101400;;;;
2022/12/19 03:52:10;;;;;;;2.3;2.3;;;;;;;2.7;100.0;101390;;;;
2022/12/19 03:53:10;;;;;;;2.3;2.3;;;;;;;2.7;100.0;101390;;;;
2022/12/19 03:54:12;;;;;;;2.3;2.3;;;;;;;2.8;100.0;101390;;;;
2022/12/19 03:55:00;;;;;;;2.3;2.3;;;;;;;2.8;100.0;101390;;;;
2022/12/19 03:56:08;;;;;;;2.3;2.3;;;;;;;2.8;100.0;101400;;;;
2022/12/19 03:57:10;;;;;;;2.3;2.3;;;;;;;2.8;100.0;101400;;;;
2022/12/19 03:58:05;;;;;;;2.3;2.3;;;;;;;2.8;100.0;101390;;;;
2022/12/19 03:59:06;;;;;;;2.3;2.3;;;;;;;2.8;100.0;101390;;;;
2022/12/19 04:00:05;;;;;;;2.3;2.3;;;;;;;2.9;100.0;101390;;;;
2022/12/19 04:01:02;;;;;;;2.3;2.3;;;;;;;2.9;100.0;101390;;;;
2022/12/19 04:02:01;;;;;;;2.3;2.3;;;;;;;3.0;100.0;101390;;;;
2022/12/19 04:03:01;;;;;;;2.3;2.3;;;;;;;3.0;100.0;101390;;;;
2022/12/19 04:04:01;;;;;;;2.3;2.3;;;;;;;2.9;100.0;101390;;;;
2022/12/19 04:05:03;;;;;;;2.3;2.3;;;;;;;2.9;100.0;101390;;;;
2022/12/19 04:06:02;;;;;;;2.3;2.3;;;;;;;3.0;100.0;101390;;;;
2022/12/19 04:07:01;;;;;;;3.7;3.5;;;;;;;3.0;100.0;101390;;;;
2022/12/19 04:08:03;;;;;;;3.7;3.5;;;;;;;3.0;100.0;101390;;;;
2022/12/19 04:09:01;;;;;;;3.7;3.5;;;;;;;3.0;100.0;101390;;;;
2022/12/19 04:10:04;;;;;;;3.7;3.5;;;;;;;3.0;100.0;101380;;;;
2022/12/19 04:11:03;;;;;;;3.7;3.5;;;;;;;3.0;100.0;101380;;;;
2022/12/19 04:12:04;;;;;;;3.7;3.5;;;;;;;3.0;100.0;101380;;;;
2022/12/19 04:13:07;;;;;;;3.7;3.5;;;;;;;3.0;100.0;101380;;;;
2022/12/19 04:14:03;;;;;;;3.7;3.5;;;;;;;3.0;100.0;101390;;;;
2022/12/19 04:15:00;;;;;;;3.7;3.5;;;;;;;3.0;100.0;101390;;;;
2022/12/19 04:16:10;;;;;;;3.7;3.5;;;;;;;3.1;100.0;101380;;;;
2022/12/19 04:17:01;;;;;;;3.7;3.5;;;;;;;3.1;100.0;101380;;;;
2022/12/19 04:18:04;;;;;;;3.7;3.5;;;;;;;3.0;100.0;101380;;;;
2022/12/19 04:19:03;;;;;;;3.7;3.5;;;;;;;3.0;100.0;101380;;;;
2022/12/19 04:20:04;;;;;;;3.7;3.5;;;;;;;3.1;100.0;101380;;;;
2022/12/19 04:21:04;;;;;;;3.7;3.5;;;;;;;3.1;100.0;101380;;;;
2022/12/19 04:22:04;;;;;;;3.7;3.5;;;;;;;3.1;100.0;101380;;;;
2022/12/19 04:23:07;;;;;;;3.7;3.5;;;;;;;3.1;100.0;101380;;;;
2022/12/19 04:24:05;;;;;;;3.7;3.5;;;;;;;3.2;100.0;101380;;;;
2022/12/19 04:25:02;;;;;;;3.7;3.5;;;;;;;3.2;100.0;101380;;;;
2022/12/19 04:26:02;;;;;;;3.7;3.5;;;;;;;3.2;100.0;101370;;;;
2022/12/19 04:27:02;;;;;;;2.7;2.6;;;;;;;3.2;100.0;101370;;;;
2022/12/19 04:28:03;;;;;;;2.7;2.6;;;;;;;3.2;100.0;101370;;;;
2022/12/19 04:29:03;;;;;;;2.7;2.6;;;;;;;3.2;100.0;101370;;;;
2022/12/19 04:30:01;;;;;;;2.7;2.6;;;;;;;3.3;100.0;101370;;;;
2022/12/19 04:31:01;;;;;;;2.7;2.6;;;;;;;3.3;100.0;101370;;;;
2022/12/19 04:32:02;;;;;;;2.7;2.6;;;;;;;3.3;100.0;101370;;;;
2022/12/19 04:33:00;;;;;;;2.7;2.6;;;;;;;3.3;100.0;101370;;;;
2022/12/19 04:34:00;;;;;;;2.7;2.6;;;;;;;3.3;100.0;101360;;;;
2022/12/19 04:35:01;;;;;;;2.7;2.6;;;;;;;3.3;100.0;101360;;;;
2022/12/19 04:36:00;;;;;;;2.7;2.6;;;;;;;3.4;100.0;101360;;;;
2022/12/19 04:37:00;;;;;;;2.7;2.6;;;;;;;3.4;100.0;101360;;;;
2022/12/19 04:38:00;;;;;;;2.7;2.6;;;;;;;3.5;100.0;101360;;;;
2022/12/19 04:39:00;;;;;;;2.7;2.6;;;;;;;3.5;100.0;101360;;;;
2022/12/19 04:40:00;;;;;;;2.7;2.6;;;;;;;3.4;100.0;101360;;;;
2022/12/19 04:41:00;;;;;;;2.7;2.6;;;;;;;3.4;100.0;101360;;;;
2022/12/19 04:42:00;;;;;;;2.7;2.6;;;;;;;3.5;100.0;101360;;;;
2022/12/19 04:43:00;;;;;;;2.7;2.6;;;;;;;3.5;100.0;101360;;;;
2022/12/19 04:44:00;;;;;;;2.7;2.6;;;;;;;3.5;100.0;101360;;;;
2022/12/19 04:45:01;;;;;;;2.7;2.6;;;;;;;3.5;100.0;101360;;;;
2022/12/19 04:46:00;;;;;;;2.7;2.6;;;;;;;3.5;100.0;101360;;;;
2022/12/19 04:47:00;;;;;;;2.3;2.3;;;;;;;3.5;100.0;101360;;;;
2022/12/19 04:48:00;;;;;;;2.3;2.3;;;;;;;3.5;100.0;101350;;;;
2022/12/19 04:49:00;;;;;;;2.3;2.3;;;;;;;3.5;100.0;101350;;;;
2022/12/19 04:50:00;;;;;;;2.3;2.3;;;;;;;3.5;100.0;101360;;;;
2022/12/19 04:51:00;;;;;;;2.3;2.3;;;;;;;3.5;100.0;101360;;;;
2022/12/19 04:52:00;;;;;;;2.3;2.3;;;;;;;3.6;100.0;101360;;;;
2022/12/19 04:53:00;;;;;;;2.3;2.3;;;;;;;3.6;100.0;101360;;;;
2022/12/19 04:54:00;;;;;;;2.3;2.3;;;;;;;3.6;100.0;101360;;;;
2022/12/19 04:55:00;;;;;;;2.3;2.3;;;;;;;3.6;100.0;101360;;;;
2022/12/19 04:56:01;;;;;;;2.3;2.3;;;;;;;3.7;100.0;101360;;;;
2022/12/19 04:57:00;;;;;;;2.3;2.3;;;;;;;3.7;100.0;101360;;;;
2022/12/19 04:58:00;;;;;;;2.3;2.3;;;;;;;3.7;100.0;101360;;;;
2022/12/19 04:59:00;;;;;;;2.3;2.3;;;;;;;3.7;100.0;101360;;;;
2022/12/19 05:00:02;;;;;;;2.3;2.3;;;;;;;3.7;100.0;101360;;;;
2022/12/19 05:01:01;;;;;;;2.3;2.3;;;;;;;3.7;100.0;101360;;;;
2022/12/19 05:02:00;;;;;;;2.3;2.3;;;;;;;3.7;100.0;101360;;;;
2022/12/19 05:03:01;;;;;;;2.3;2.3;;;;;;;3.7;100.0;101360;;;;
2022/12/19 05:04:04;;;;;;;2.3;2.3;;;;;;;3.8;100.0;101360;;;;
2022/12/19 05:05:00;;;;;;;2.3;2.3;;;;;;;3.8;100.0;101360;;;;
2022/12/19 05:06:02;;;;;;;2.3;2.3;;;;;;;3.9;100.0;101360;;;;
2022/12/19 05:07:00;;;;;;;2.2;2.2;;;;;;;3.9;100.0;101360;;;;
2022/12/19 05:08:00;;;;;;;2.2;2.2;;;;;;;4.0;100.0;101360;;;;
2022/12/19 05:09:00;;;;;;;2.2;2.2;;;;;;;4.0;100.0;101360;;;;
2022/12/19 05:10:00;;;;;;;2.2;2.2;;;;;;;3.9;100.0;101360;;;;
2022/12/19 05:11:01;;;;;;;2.2;2.2;;;;;;;3.9;100.0;101360;;;;
2022/12/19 05:12:01;;;;;;;2.2;2.2;;;;;;;3.9;100.0;101360;;;;
2022/12/19 05:13:00;;;;;;;2.2;2.2;;;;;;;3.9;100.0;101360;;;;
2022/12/19 05:14:00;;;;;;;2.2;2.2;;;;;;;4.1;100.0;101360;;;;
2022/12/19 05:15:00;;;;;;;2.2;2.2;;;;;;;4.1;100.0;101360;;;;
2022/12/19 05:16:02;;;;;;;2.2;2.2;;;;;;;4.0;100.0;101360;;;;
2022/12/19 05:17:01;;;;;;;2.2;2.2;;;;;;;4.0;100.0;101360;;;;
2022/12/19 05:18:00;;;;;;;2.2;2.2;;;;;;;4.1;100.0;101350;;;;
2022/12/19 05:19:00;;;;;;;2.2;2.2;;;;;;;4.1;100.0;101350;;;;
2022/12/19 05:20:00;;;;;;;2.2;2.2;;;;;;;4.1;100.0;101350;;;;
2022/12/19 05:21:00;;;;;;;2.2;2.2;;;;;;;4.1;100.0;101350;;;;
2022/12/19 05:22:01;;;;;;;2.2;2.2;;;;;;;4.2;100.0;101350;;;;
2022/12/19 05:23:05;;;;;;;2.2;2.2;;;;;;;4.2;100.0;101350;;;;
2022/12/19 05:24:00;;;;;;;2.2;2.2;;;;;;;4.2;100.0;101350;;;;
2022/12/19 05:25:00;;;;;;;2.2;2.2;;;;;;;4.2;100.0;101350;;;;
2022/12/19 05:26:01;;;;;;;2.2;2.2;;;;;;;4.1;100.0;101350;;;;
2022/12/19 05:27:00;;;;;;;2.2;2.2;;;;;;;4.1;100.0;101350;;;;
2022/12/19 05:28:00;;;;;;;2.2;2.2;;;;;;;4.2;100.0;101350;;;;
2022/12/19 05:29:00;;;;;;;2.2;2.2;;;;;;;4.2;100.0;101350;;;;
2022/12/19 05:30:01;;;;;;;2.2;2.2;;;;;;;4.3;100.0;101340;;;;
2022/12/19 05:31:01;;;;;;;2.2;2.2;;;;;;;4.3;100.0;101340;;;;
2022/12/19 05:32:00;;;;;;;2.2;2.2;;;;;;;4.4;100.0;101340;;;;
2022/12/19 05:33:00;;;;;;;2.2;2.2;;;;;;;4.4;100.0;101340;;;;
2022/12/19 05:34:00;;;;;;;2.2;2.2;;;;;;;4.5;100.0;101340;;;;
2022/12/19 05:35:00;;;;;;;2.2;2.2;;;;;;;4.5;100.0;101340;;;;
2022/12/19 05:36:01;;;;;;;2.2;2.2;;;;;;;4.6;100.0;101340;;;;
2022/12/19 05:37:02;;;;;;;2.2;2.2;;;;;;;4.6;100.0;101340;;;;
2022/12/19 05:38:01;;;;;;;2.2;2.2;;;;;;;4.6;100.0;101340;;;;
2022/12/19 05:39:00;;;;;;;2.2;2.2;;;;;;;4.6;100.0;101340;;;;
2022/12/19 05:40:00;;;;;;;2.2;2.2;;;;;;;4.7;100.0;101340;;;;
2022/12/19 05:41:09;;;;;;;2.2;2.2;;;;;;;4.7;100.0;101340;;;;
2022/12/19 05:42:00;;;;;;;2.2;2.2;;;;;;;4.7;100.0;101340;;;;
2022/12/19 05:43:00;;;;;;;2.2;2.2;;;;;;;4.7;100.0;101340;;;;
2022/12/19 05:44:00;;;;;;;2.2;2.2;;;;;;;4.9;100.0;101340;;;;
2022/12/19 05:45:00;;;;;;;2.2;2.2;;;;;;;4.9;100.0;101340;;;;
2022/12/19 05:46:00;;;;;;;2.2;2.2;;;;;;;4.9;100.0;101340;;;;
2022/12/19 05:47:00;;;;;;;1.8;1.8;;;;;;;4.9;100.0;101340;;;;
2022/12/19 05:48:01;;;;;;;1.8;1.8;;;;;;;5.0;100.0;101330;;;;
2022/12/19 05:49:00;;;;;;;1.8;1.8;;;;;;;5.0;100.0;101330;;;;
2022/12/19 05:50:00;;;;;;;1.8;1.8;;;;;;;5.0;100.0;101330;;;;
2022/12/19 05:51:00;;;;;;;1.8;1.8;;;;;;;5.0;100.0;101330;;;;
2022/12/19 05:52:00;;;;;;;1.8;1.8;;;;;;;5.0;100.0;101330;;;;
2022/12/19 05:53:00;;;;;;;1.8;1.8;;;;;;;5.0;100.0;101330;;;;
2022/12/19 05:54:00;;;;;;;1.8;1.8;;;;;;;5.0;100.0;101330;;;;
2022/12/19 05:55:00;;;;;;;1.8;1.8;;;;;;;5.0;100.0;101330;;;;
2022/12/19 05:56:03;;;;;;;1.8;1.8;;;;;;;5.2;100.0;101340;;;;
2022/12/19 05:57:01;;;;;;;1.8;1.8;;;;;;;5.2;100.0;101340;;;;
2022/12/19 05:58:00;;;;;;;1.8;1.8;;;;;;;5.1;100.0;101340;;;;
2022/12/19 05:59:00;;;;;;;1.8;1.8;;;;;;;5.1;100.0;101340;;;;
2022/12/19 06:00:01;;;;;;;1.8;1.8;;;;;;;5.1;100.0;101340;;;;
2022/12/19 06:01:02;;;;;;;1.8;1.8;;;;;;;5.1;100.0;101340;;;;
2022/12/19 06:02:00;;;;;;;1.8;1.8;;;;;;;5.2;100.0;101340;;;;
2022/12/19 06:03:00;;;;;;;1.8;1.8;;;;;;;5.2;100.0;101340;;;;
2022/12/19 06:04:00;;;;;;;1.8;1.8;;;;;;;5.2;100.0;101340;;;;
2022/12/19 06:05:00;;;;;;;1.8;1.8;;;;;;;5.2;100.0;101340;;;;
2022/12/19 06:06:01;;;;;;;1.8;1.8;;;;;;;5.4;100.0;101340;;;;
2022/12/19 06:07:00;;;;;;;2.0;2.0;;;;;;;5.4;100.0;101340;;;;
2022/12/19 06:08:01;;;;;;;2.0;2.0;;;;;;;5.4;100.0;101340;;;;
2022/12/19 06:09:01;;;;;;;2.0;2.0;;;;;;;5.4;100.0;101340;;;;
2022/12/19 06:10:00;;;;;;;2.0;2.0;;;;;;;5.5;100.0;101330;;;;
2022/12/19 06:11:01;;;;;;;2.0;2.0;;;;;;;5.5;100.0;101330;;;;
2022/12/19 06:12:00;;;;;;;2.0;2.0;;;;;;;5.5;100.0;101350;;;;
2022/12/19 06:13:01;;;;;;;2.0;2.0;;;;;;;5.5;100.0;101350;;;;
2022/12/19 06:14:00;;;;;;;2.0;2.0;;;;;;;5.6;100.0;101340;;;;
2022/12/19 06:15:00;;;;;;;2.0;2.0;;;;;;;5.6;100.0;101340;;;;
2022/12/19 06:16:02;;;;;;;2.0;2.0;;;;;;;5.6;100.0;101330;;;;
2022/12/19 06:17:00;;;;;;;2.0;2.0;;;;;;;5.6;100.0;101330;;;;
2022/12/19 06:18:00;;;;;;;2.0;2.0;;;;;;;5.6;100.0;101340;;;;
2022/12/19 06:19:00;;;;;;;2.0;2.0;;;;;;;5.6;100.0;101340;;;;
2022/12/19 06:20:00;;;;;;;2.0;2.0;;;;;;;5.6;100.0;101340;;;;
2022/12/19 06:21:02;;;;;;;2.0;2.0;;;;;;;5.6;100.0;101340;;;;
2022/12/19 06:22:00;;;;;;;2.0;2.0;;;;;;;5.7;100.0;101340;;;;
2022/12/19 06:23:01;;;;;;;2.0;2.0;;;;;;;5.7;100.0;101340;;;;
2022/12/19 06:24:00;;;;;;;2.0;2.0;;;;;;;5.7;100.0;101330;;;;
2022/12/19 06:25:00;;;;;;;2.0;2.0;;;;;;;5.7;100.0;101330;;;;
2022/12/19 06:26:01;;;;;;;2.0;2.0;;;;;;;5.7;100.0;101330;;;;
2022/12/19 06:27:00;;;;;;;1.6;1.6;;;;;;;5.7;100.0;101330;;;;
2022/12/19 06:28:00;;;;;;;1.6;1.6;;;;;;;5.7;100.0;101330;;;;
2022/12/19 06:29:00;;;;;;;1.6;1.6;;;;;;;5.7;100.0;101330;;;;
2022/12/19 06:30:00;;;;;;;1.6;1.6;;;;;;;5.7;100.0;101330;;;;
2022/12/19 06:31:02;;;;;;;1.6;1.6;;;;;;;5.7;100.0;101330;;;;